Time;durP1;ratioP1;P1;durP2;ratioP2;P2;SDS_P1;SDS_P2;PMS_P1;PMS_P2;Temp;Humidity;BMP_temperature;BMP_pressure;BME280_temperature;BME280_humidity;BME280_pressure;Samples;Min_cycle;Max_cycle;Signal;HPM_P1;HPM_P2
2022/10/10 00:02:28;;;;;;;4.10;1.40;;;16.90;99.90;;;;;;4954779;29;20209;-71
2022/10/10 00:05:01;;;;;;;8.88;1.58;;;17.00;99.90;;;;;;4956254;29;20207;-72
2022/10/10 00:07:32;;;;;;;4.00;1.10;;;17.00;99.90;;;;;;4955310;29;20205;-71
2022/10/10 00:10:03;;;;;;;5.30;1.48;;;17.00;99.90;;;;;;4955373;29;20562;-74
2022/10/10 00:12:34;;;;;;;4.50;1.08;;;17.00;99.90;;;;;;4954425;29;20565;-72
2022/10/10 00:15:05;;;;;;;5.15;1.20;;;16.90;99.90;;;;;;4953686;29;20706;-70
2022/10/10 00:17:36;;;;;;;8.10;1.15;;;16.90;99.90;;;;;;4955859;29;20201;-71
2022/10/10 00:20:10;;;;;;;3.28;0.93;;;16.70;99.90;;;;;;4952333;29;20200;-78
2022/10/10 00:22:41;;;;;;;6.22;1.00;;;16.50;99.90;;;;;;4950746;29;20224;-77
2022/10/10 00:25:13;;;;;;;4.97;0.90;;;16.40;99.90;;;;;;4951487;29;20567;-72
2022/10/10 00:27:43;;;;;;;5.00;1.25;;;16.30;99.90;;;;;;4954039;29;20209;-75
2022/10/10 00:30:15;;;;;;;6.15;1.00;;;16.20;99.90;;;;;;4953848;29;20197;-71
2022/10/10 00:32:45;;;;;;;2.95;1.00;;;16.10;99.90;;;;;;4955245;29;20200;-70
2022/10/10 00:35:18;;;;;;;3.67;1.05;;;16.10;99.90;;;;;;4950214;28;20770;-70
2022/10/10 00:37:49;;;;;;;4.55;1.20;;;16.10;99.90;;;;;;4950047;29;20197;-71
2022/10/10 00:40:20;;;;;;;6.10;1.00;;;16.30;99.90;;;;;;4950947;29;20212;-73
2022/10/10 00:42:54;;;;;;;5.00;1.25;;;16.60;99.90;;;;;;4950306;29;20216;-70
2022/10/10 00:45:29;;;;;;;3.70;1.13;;;16.70;99.90;;;;;;4949669;29;20208;-71
2022/10/10 00:48:04;;;;;;;3.83;1.10;;;16.80;99.90;;;;;;4949773;29;20200;-71
2022/10/10 00:50:41;;;;;;;2.65;1.00;;;17.10;99.90;;;;;;4945894;29;20563;-72
2022/10/10 00:53:14;;;;;;;3.83;1.00;;;17.50;99.90;;;;;;4948720;29;20193;-72
2022/10/10 00:55:46;;;;;;;3.45;0.90;;;17.40;99.90;;;;;;4949807;29;20224;-74
2022/10/10 00:58:18;;;;;;;2.85;1.17;;;17.40;99.90;;;;;;4950884;29;20558;-73
2022/10/10 01:00:49;;;;;;;4.50;1.10;;;17.40;99.90;;;;;;4955330;29;20211;-75
2022/10/10 01:03:20;;;;;;;2.60;1.02;;;17.40;99.90;;;;;;4951259;29;20208;-75
2022/10/10 01:05:54;;;;;;;5.93;1.17;;;17.40;99.90;;;;;;4953006;29;20189;-71
2022/10/10 01:08:25;;;;;;;2.00;1.00;;;17.30;99.90;;;;;;4947937;28;20219;-76
2022/10/10 01:11:13;;;;;;;6.68;1.23;;;17.40;99.90;;;;;;4952096;29;20186;-70
2022/10/10 01:13:54;;;;;;;7.15;1.40;;;17.40;99.90;;;;;;4944939;29;20207;-73
2022/10/10 01:16:30;;;;;;;6.10;1.20;;;17.20;99.90;;;;;;4948134;29;20228;-71
2022/10/10 01:19:15;;;;;;;6.38;0.90;;;17.10;99.90;;;;;;4954156;29;20197;-75
2022/10/10 01:21:57;;;;;;;5.45;1.05;;;17.00;99.90;;;;;;4947947;29;20656;-76
2022/10/10 01:24:48;;;;;;;4.18;1.23;;;16.90;99.90;;;;;;4949454;29;20205;-74
2022/10/10 01:27:29;;;;;;;2.80;1.02;;;16.60;99.90;;;;;;4945606;29;20201;-72
2022/10/10 01:30:07;;;;;;;5.65;1.10;;;16.50;99.90;;;;;;4944409;29;20197;-72
2022/10/10 01:32:44;;;;;;;3.65;1.20;;;16.40;99.90;;;;;;4948240;29;20196;-71
2022/10/10 01:35:40;;;;;;;2.75;0.95;;;16.40;99.90;;;;;;4943300;29;20235;-71
2022/10/10 01:38:26;;;;;;;4.18;1.50;;;16.30;99.90;;;;;;4967078;23;20254;-77
2022/10/10 01:41:05;;;;;;;5.55;1.50;;;16.20;99.90;;;;;;4971952;28;20607;-78
2022/10/10 01:43:38;;;;;;;2.85;1.02;;;16.10;99.90;;;;;;4974858;28;20192;-77
2022/10/10 01:46:16;;;;;;;3.75;0.90;;;16.00;99.90;;;;;;4974199;28;20197;-75
2022/10/10 01:48:50;;;;;;;6.55;0.98;;;15.90;99.90;;;;;;4974938;28;20200;-76
2022/10/10 01:51:44;;;;;;;1.92;0.82;;;15.80;99.90;;;;;;4974548;28;20222;-74
2022/10/10 01:54:28;;;;;;;5.60;1.00;;;15.70;99.90;;;;;;4973746;28;20208;-78
2022/10/10 01:57:12;;;;;;;3.70;0.90;;;15.70;99.90;;;;;;4966639;28;20212;-74
2022/10/10 01:59:50;;;;;;;3.88;0.70;;;15.60;99.90;;;;;;4974474;28;20188;-75
2022/10/10 02:02:31;;;;;;;5.28;1.00;;;15.60;99.90;;;;;;4974221;28;20199;-76
2022/10/10 02:05:06;;;;;;;6.80;1.10;;;15.50;99.90;;;;;;4974412;28;20215;-78
2022/10/10 02:07:43;;;;;;;4.80;0.93;;;15.50;99.90;;;;;;4963660;28;20207;-72
2022/10/10 02:10:17;;;;;;;3.25;1.10;;;15.50;99.90;;;;;;4971896;28;20207;-71
2022/10/10 02:12:50;;;;;;;4.28;1.00;;;15.50;99.90;;;;;;4973496;28;20192;-72
2022/10/10 02:15:23;;;;;;;6.25;0.90;;;15.40;99.90;;;;;;4974266;28;20216;-77
2022/10/10 02:17:58;;;;;;;2.60;0.73;;;15.40;99.90;;;;;;4965601;28;20628;-76
2022/10/10 02:20:32;;;;;;;3.15;0.80;;;15.40;99.90;;;;;;4963957;28;20299;-71
2022/10/10 02:23:03;;;;;;;5.43;1.02;;;15.50;99.90;;;;;;4967897;28;20219;-72
2022/10/10 02:25:38;;;;;;;5.05;1.10;;;15.50;99.90;;;;;;4968573;28;20223;-71
2022/10/10 02:28:15;;;;;;;2.70;0.90;;;15.50;99.90;;;;;;4971565;28;20283;-72
2022/10/10 02:30:49;;;;;;;4.85;0.80;;;15.50;99.90;;;;;;4970151;28;20200;-70
2022/10/10 02:33:33;;;;;;;3.45;0.95;;;15.50;99.90;;;;;;4972628;28;20202;-73
2022/10/10 02:36:04;;;;;;;4.75;1.20;;;15.50;99.90;;;;;;4971072;28;20231;-72
2022/10/10 02:38:35;;;;;;;4.72;1.05;;;15.50;99.90;;;;;;4951461;28;20237;-72
2022/10/10 02:41:09;;;;;;;4.68;1.15;;;15.50;99.90;;;;;;4955893;28;20285;-71
2022/10/10 02:43:41;;;;;;;6.55;1.20;;;15.60;99.90;;;;;;4954088;28;20189;-71
2022/10/10 02:46:14;;;;;;;5.13;1.10;;;15.60;99.90;;;;;;4962378;28;20201;-71
2022/10/10 02:48:47;;;;;;;1.50;0.73;;;15.60;99.90;;;;;;4952256;28;20201;-77
2022/10/10 02:51:19;;;;;;;2.20;0.70;;;15.60;99.90;;;;;;4961589;28;20211;-72
2022/10/10 02:53:50;;;;;;;5.78;1.30;;;15.70;99.90;;;;;;4966046;28;20193;-71
2022/10/10 02:56:21;;;;;;;2.97;0.82;;;15.70;99.90;;;;;;4960562;28;20588;-71
2022/10/10 02:58:52;;;;;;;3.65;1.00;;;15.70;99.90;;;;;;4954773;28;20208;-72
2022/10/10 03:01:23;;;;;;;6.18;1.25;;;15.70;99.90;;;;;;4955975;28;20211;-71
2022/10/10 03:03:55;;;;;;;4.07;1.35;;;15.80;99.90;;;;;;4962527;28;20201;-74
2022/10/10 03:06:26;;;;;;;5.15;1.10;;;15.80;99.90;;;;;;4953343;28;20213;-73
2022/10/10 03:08:57;;;;;;;2.67;0.80;;;15.80;99.90;;;;;;4958933;28;20242;-74
2022/10/10 03:11:28;;;;;;;6.35;0.90;;;15.90;99.90;;;;;;4953961;28;20193;-70
2022/10/10 03:13:59;;;;;;;4.53;1.00;;;16.00;99.90;;;;;;4953756;28;20633;-75
2022/10/10 03:16:30;;;;;;;3.33;1.08;;;15.90;99.90;;;;;;4953282;28;20572;-74
2022/10/10 03:19:07;;;;;;;4.32;1.13;;;15.90;99.90;;;;;;4962315;28;20219;-76
2022/10/10 03:21:38;;;;;;;3.53;0.82;;;16.00;99.90;;;;;;4955865;28;20237;-76
2022/10/10 03:24:09;;;;;;;5.25;1.02;;;16.10;99.90;;;;;;4953280;28;20197;-73
2022/10/10 03:26:39;;;;;;;3.75;0.60;;;16.10;99.90;;;;;;4961100;28;20201;-70
2022/10/10 03:29:11;;;;;;;4.60;0.77;;;16.20;99.90;;;;;;4943523;28;20208;-72
2022/10/10 03:31:42;;;;;;;6.60;1.10;;;16.20;99.90;;;;;;4946758;28;20560;-72
2022/10/10 03:34:15;;;;;;;4.03;0.98;;;16.20;99.90;;;;;;4950004;29;20209;-71
2022/10/10 03:36:46;;;;;;;4.40;0.68;;;16.20;99.90;;;;;;4950049;28;20237;-75
2022/10/10 03:39:16;;;;;;;3.28;0.90;;;16.20;99.90;;;;;;4955455;28;20193;-71
2022/10/10 03:41:49;;;;;;;1.25;0.70;;;16.20;99.90;;;;;;4961342;28;20201;-70
2022/10/10 03:44:19;;;;;;;3.83;0.80;;;16.20;99.90;;;;;;4954530;28;20207;-70
2022/10/10 03:46:50;;;;;;;3.03;0.60;;;16.30;99.90;;;;;;4953252;28;20207;-70
2022/10/10 03:49:23;;;;;;;4.18;0.80;;;16.40;99.90;;;;;;4955146;28;20212;-72
2022/10/10 03:51:54;;;;;;;2.55;0.60;;;16.50;99.90;;;;;;4947764;28;20207;-71
2022/10/10 03:54:25;;;;;;;3.15;0.60;;;16.60;99.90;;;;;;4956530;28;20205;-70
2022/10/10 03:56:56;;;;;;;5.25;0.90;;;16.70;99.90;;;;;;4950093;28;20216;-70
2022/10/10 03:59:27;;;;;;;4.45;0.60;;;16.80;99.90;;;;;;4955971;28;20209;-70
2022/10/10 04:01:58;;;;;;;5.68;1.00;;;16.80;99.90;;;;;;4954094;28;20201;-73
2022/10/10 04:04:31;;;;;;;4.43;0.88;;;17.00;99.90;;;;;;4954965;28;20223;-69
2022/10/10 04:07:02;;;;;;;2.30;0.70;;;17.30;99.90;;;;;;4953748;28;20200;-71
2022/10/10 04:09:33;;;;;;;4.13;0.70;;;17.40;99.90;;;;;;4951940;28;20200;-73
2022/10/10 04:12:04;;;;;;;4.05;0.75;;;17.50;99.90;;;;;;4952997;28;20709;-70
2022/10/10 04:14:35;;;;;;;4.88;0.70;;;17.50;99.90;;;;;;4955024;29;20573;-70
2022/10/10 04:17:06;;;;;;;5.32;0.60;;;17.40;99.90;;;;;;4953792;29;20216;-70
2022/10/10 04:19:38;;;;;;;2.55;0.70;;;17.40;99.90;;;;;;4953836;28;20196;-70
2022/10/10 04:22:10;;;;;;;5.25;0.70;;;17.40;99.90;;;;;;4954268;28;20197;-70
2022/10/10 04:24:40;;;;;;;3.25;0.55;;;17.20;99.90;;;;;;4953895;28;20212;-70
2022/10/10 04:27:12;;;;;;;2.33;0.60;;;17.00;99.90;;;;;;4953385;28;20290;-70
2022/10/10 04:29:43;;;;;;;3.45;0.60;;;17.00;99.90;;;;;;4948363;28;20205;-70
2022/10/10 04:32:14;;;;;;;4.90;0.70;;;17.00;99.90;;;;;;4946944;28;20583;-73
2022/10/10 04:34:46;;;;;;;2.60;0.68;;;16.90;99.90;;;;;;4939710;28;20665;-70
2022/10/10 04:37:17;;;;;;;4.50;0.95;;;16.80;99.90;;;;;;4952243;28;20249;-71
2022/10/10 04:39:48;;;;;;;2.97;0.73;;;16.80;99.90;;;;;;4956630;28;20203;-73
2022/10/10 04:42:19;;;;;;;5.20;0.80;;;16.80;99.90;;;;;;4953905;28;20201;-71
2022/10/10 04:44:50;;;;;;;4.95;0.85;;;16.80;99.90;;;;;;4954142;28;20197;-70
2022/10/10 04:47:21;;;;;;;2.72;0.75;;;16.80;99.90;;;;;;4954014;28;20197;-71
2022/10/10 04:49:54;;;;;;;3.33;0.82;;;16.80;99.90;;;;;;4955588;28;20207;-70
2022/10/10 04:52:25;;;;;;;2.10;0.50;;;16.90;99.90;;;;;;4953122;28;20207;-71
2022/10/10 04:54:56;;;;;;;4.57;0.75;;;16.80;99.90;;;;;;4945145;29;20201;-70
2022/10/10 04:57:27;;;;;;;6.78;0.77;;;16.80;99.90;;;;;;4953133;28;20221;-76
2022/10/10 04:59:58;;;;;;;4.60;0.80;;;16.80;99.90;;;;;;4954884;28;20197;-78
2022/10/10 05:02:29;;;;;;;4.18;0.75;;;16.80;99.90;;;;;;4953952;28;20201;-71
2022/10/10 05:05:02;;;;;;;5.40;0.75;;;16.80;99.90;;;;;;4955051;29;20196;-77
2022/10/10 05:07:33;;;;;;;3.15;0.80;;;16.70;99.90;;;;;;4952054;28;20212;-76
2022/10/10 05:10:04;;;;;;;2.15;0.60;;;16.70;99.90;;;;;;4955262;29;20193;-70
2022/10/10 05:12:35;;;;;;;5.35;0.70;;;16.90;99.90;;;;;;4951399;28;20201;-70
2022/10/10 05:15:06;;;;;;;3.05;0.90;;;17.00;99.90;;;;;;4953522;28;20201;-74
2022/10/10 05:17:37;;;;;;;2.85;0.80;;;17.10;99.90;;;;;;4952892;28;20644;-70
2022/10/10 05:20:11;;;;;;;5.38;0.85;;;16.90;99.90;;;;;;4953497;28;20208;-71
2022/10/10 05:22:42;;;;;;;2.25;0.75;;;16.80;99.90;;;;;;4944838;28;20220;-72
2022/10/10 05:25:13;;;;;;;2.88;0.93;;;16.80;99.90;;;;;;4943898;28;20193;-72
2022/10/10 05:27:44;;;;;;;2.28;0.90;;;16.80;99.90;;;;;;4946804;28;20212;-71
2022/10/10 05:30:16;;;;;;;2.53;0.65;;;16.70;99.90;;;;;;4952023;28;20219;-75
2022/10/10 05:32:47;;;;;;;7.45;1.08;;;16.60;99.90;;;;;;4950210;28;20205;-71
2022/10/10 05:35:20;;;;;;;3.65;0.85;;;16.50;99.90;;;;;;4951519;29;20219;-71
2022/10/10 05:37:51;;;;;;;2.15;0.65;;;16.40;99.90;;;;;;4952351;28;20248;-71
2022/10/10 05:40:21;;;;;;;6.32;1.02;;;16.30;99.90;;;;;;4960513;28;20301;-71
2022/10/10 05:42:52;;;;;;;1.77;0.77;;;16.30;99.90;;;;;;4959048;28;20196;-71
2022/10/10 05:45:27;;;;;;;2.83;0.90;;;16.20;99.90;;;;;;4954465;28;20211;-72
2022/10/10 05:47:57;;;;;;;2.88;0.82;;;16.20;99.90;;;;;;4953691;28;20197;-71
2022/10/10 05:50:35;;;;;;;2.50;0.80;;;16.10;99.90;;;;;;4954257;29;20205;-73
2022/10/10 05:53:06;;;;;;;3.53;0.80;;;16.10;99.90;;;;;;4952018;28;20468;-73
2022/10/10 05:55:37;;;;;;;3.97;1.00;;;16.10;99.90;;;;;;4948557;28;20216;-71
2022/10/10 05:58:08;;;;;;;4.32;0.95;;;16.00;99.90;;;;;;4953269;28;21015;-76
2022/10/10 06:00:39;;;;;;;3.20;0.90;;;16.00;99.90;;;;;;4950400;28;20208;-71
2022/10/10 06:03:12;;;;;;;6.25;1.33;;;16.00;99.90;;;;;;4950841;28;20205;-73
2022/10/10 06:05:47;;;;;;;4.93;1.05;;;15.90;99.90;;;;;;4952137;28;20201;-71
2022/10/10 06:08:18;;;;;;;3.15;0.88;;;15.90;99.90;;;;;;4951424;28;20231;-71
2022/10/10 06:10:49;;;;;;;1.98;0.70;;;15.90;99.90;;;;;;4953696;29;20203;-71
2022/10/10 06:13:21;;;;;;;3.72;0.70;;;15.90;99.90;;;;;;4953186;28;20197;-71
2022/10/10 06:15:54;;;;;;;6.80;0.82;;;15.80;99.90;;;;;;4953304;28;20200;-71
2022/10/10 06:18:25;;;;;;;4.60;0.95;;;15.80;99.90;;;;;;4951010;29;20221;-70
2022/10/10 06:21:02;;;;;;;3.20;1.02;;;15.80;99.90;;;;;;4952057;28;20682;-70
2022/10/10 06:23:33;;;;;;;4.10;0.80;;;15.90;99.90;;;;;;4952977;29;20200;-72
2022/10/10 06:26:04;;;;;;;6.40;1.00;;;15.90;99.90;;;;;;4945178;28;20207;-71
2022/10/10 06:28:35;;;;;;;3.38;0.70;;;15.80;99.90;;;;;;4948195;28;20256;-71
2022/10/10 06:31:09;;;;;;;4.10;0.90;;;15.80;99.90;;;;;;4952339;28;20576;-71
2022/10/10 06:33:39;;;;;;;2.50;0.90;;;15.80;99.90;;;;;;4944954;28;20209;-71
2022/10/10 06:36:14;;;;;;;2.20;1.00;;;15.80;99.90;;;;;;4947401;28;20234;-71
2022/10/10 06:38:46;;;;;;;4.95;0.85;;;15.80;99.90;;;;;;4952692;28;20231;-70
2022/10/10 06:41:17;;;;;;;4.78;1.10;;;15.90;99.90;;;;;;4951660;28;20663;-73
2022/10/10 06:43:48;;;;;;;5.90;1.25;;;15.90;99.90;;;;;;4946471;28;20197;-75
2022/10/10 06:46:19;;;;;;;2.33;0.80;;;15.80;99.90;;;;;;4951601;28;20264;-70
2022/10/10 06:48:49;;;;;;;3.38;1.05;;;15.80;99.90;;;;;;4952160;29;20208;-70
2022/10/10 06:51:23;;;;;;;2.35;0.95;;;15.80;99.90;;;;;;4950916;28;20200;-71
2022/10/10 06:53:54;;;;;;;3.10;0.93;;;15.80;99.90;;;;;;4945500;28;20201;-71
2022/10/10 06:56:25;;;;;;;5.05;0.90;;;15.80;99.90;;;;;;4949035;28;20224;-72
2022/10/10 06:58:56;;;;;;;3.00;0.90;;;15.70;99.90;;;;;;4950445;28;20259;-71
2022/10/10 07:01:27;;;;;;;1.20;0.80;;;15.70;99.90;;;;;;4949666;28;20201;-71
2022/10/10 07:03:58;;;;;;;4.35;0.90;;;15.70;99.90;;;;;;4948801;28;20204;-70
2022/10/10 07:06:31;;;;;;;2.15;0.90;;;15.70;99.90;;;;;;4945055;28;20291;-71
2022/10/10 07:09:02;;;;;;;3.55;1.00;;;15.70;99.90;;;;;;4949688;28;20197;-71
2022/10/10 07:11:34;;;;;;;5.55;1.20;;;15.70;99.90;;;;;;4955381;28;20204;-71
2022/10/10 07:14:05;;;;;;;1.60;0.98;;;15.60;99.90;;;;;;4954953;28;20570;-71
2022/10/10 07:16:36;;;;;;;3.65;0.90;;;15.60;99.90;;;;;;4953637;28;20212;-71
2022/10/10 07:19:07;;;;;;;5.07;0.90;;;15.60;99.90;;;;;;4952356;28;20205;-71
2022/10/10 07:21:40;;;;;;;6.32;1.00;;;15.60;99.90;;;;;;4957204;28;20244;-71
2022/10/10 07:24:11;;;;;;;2.60;0.93;;;15.60;99.90;;;;;;4952976;28;20959;-71
2022/10/10 07:26:42;;;;;;;3.13;1.20;;;15.50;99.90;;;;;;4953806;28;20209;-71
2022/10/10 07:29:13;;;;;;;3.25;1.00;;;15.50;99.90;;;;;;4953056;28;20203;-71
2022/10/10 07:31:44;;;;;;;7.03;1.17;;;15.50;99.90;;;;;;4955708;29;20197;-71
2022/10/10 07:34:15;;;;;;;3.95;1.00;;;15.50;99.90;;;;;;4955201;28;20216;-70
2022/10/10 07:36:49;;;;;;;3.33;0.90;;;15.50;99.90;;;;;;4980854;23;20240;-71
2022/10/10 07:39:22;;;;;;;7.15;0.95;;;15.40;99.90;;;;;;4948052;28;20648;-71
2022/10/10 07:41:54;;;;;;;2.92;0.75;;;15.40;99.90;;;;;;4953171;29;20200;-71
2022/10/10 07:44:27;;;;;;;2.67;0.80;;;15.40;99.90;;;;;;4954208;29;20324;-70
2022/10/10 07:46:58;;;;;;;5.32;1.27;;;15.40;99.90;;;;;;4953117;29;20201;-70
2022/10/10 07:49:29;;;;;;;4.80;1.20;;;15.40;99.90;;;;;;4954569;29;20213;-70
2022/10/10 07:52:01;;;;;;;4.15;1.10;;;15.40;99.90;;;;;;4953072;29;20599;-70
2022/10/10 07:54:33;;;;;;;3.03;1.10;;;15.30;99.90;;;;;;4955192;29;20212;-71
2022/10/10 07:57:04;;;;;;;3.30;0.90;;;15.30;99.90;;;;;;4954177;29;20580;-70
2022/10/10 07:59:35;;;;;;;3.35;0.90;;;15.20;99.90;;;;;;4954995;29;20228;-71
2022/10/10 08:02:06;;;;;;;3.58;0.90;;;15.20;99.90;;;;;;4951498;28;20226;-71
2022/10/10 08:04:37;;;;;;;6.63;0.90;;;15.10;99.90;;;;;;4951742;29;20211;-71
2022/10/10 08:07:10;;;;;;;7.93;1.00;;;15.10;99.90;;;;;;4951499;29;20208;-77
2022/10/10 08:09:41;;;;;;;3.25;1.08;;;15.10;99.90;;;;;;4947667;29;20204;-76
2022/10/10 08:12:12;;;;;;;3.13;0.90;;;15.10;99.90;;;;;;4953364;28;20204;-72
2022/10/10 08:14:43;;;;;;;2.92;0.90;;;15.10;99.90;;;;;;4955495;28;20208;-75
2022/10/10 08:17:14;;;;;;;4.07;1.30;;;15.10;99.90;;;;;;4950795;29;20225;-75
2022/10/10 08:19:45;;;;;;;6.10;1.20;;;15.00;99.90;;;;;;4950875;28;20197;-76
2022/10/10 08:22:18;;;;;;;8.13;1.20;;;15.00;99.90;;;;;;4952806;29;20197;-78
2022/10/10 08:24:48;;;;;;;4.90;1.20;;;14.90;99.90;;;;;;4954418;29;20279;-75
2022/10/10 08:27:19;;;;;;;3.53;0.93;;;14.90;99.90;;;;;;4954845;29;20679;-76
2022/10/10 08:29:50;;;;;;;3.60;1.25;;;14.90;99.90;;;;;;4950397;29;20232;-72
2022/10/10 08:32:21;;;;;;;3.75;1.20;;;14.80;99.90;;;;;;4956204;29;20193;-74
2022/10/10 08:34:52;;;;;;;5.75;1.20;;;14.80;99.90;;;;;;4955819;29;20224;-76
2022/10/10 08:37:26;;;;;;;7.10;6.43;;;14.80;99.90;;;;;;4936753;29;20252;-76
2022/10/10 08:39:57;;;;;;;5.45;1.30;;;14.70;99.90;;;;;;4927963;29;20229;-73
2022/10/10 08:42:38;;;;;;;3.65;1.40;;;14.60;99.90;;;;;;4933499;29;20193;-75
2022/10/10 08:45:16;;;;;;;7.68;1.55;;;14.60;99.90;;;;;;4934671;29;20206;-76
2022/10/10 08:47:51;;;;;;;6.35;2.17;;;14.60;99.90;;;;;;4931544;29;20209;-76
2022/10/10 08:50:26;;;;;;;4.32;1.88;;;14.50;99.90;;;;;;4933592;29;20205;-76
2022/10/10 08:53:02;;;;;;;4.10;1.70;;;14.50;99.90;;;;;;4936445;29;20212;-74
2022/10/10 08:55:35;;;;;;;5.93;1.70;;;14.40;99.90;;;;;;4934045;29;20217;-75
2022/10/10 08:58:12;;;;;;;6.40;1.70;;;14.40;99.90;;;;;;4936263;29;20229;-76
2022/10/10 09:00:48;;;;;;;3.70;1.65;;;14.40;99.90;;;;;;4928822;29;20213;-75
2022/10/10 09:03:25;;;;;;;3.15;1.63;;;14.40;99.90;;;;;;4934474;29;20201;-78
2022/10/10 09:06:15;;;;;;;3.83;1.35;;;14.40;99.90;;;;;;4933241;29;20554;-77
2022/10/10 09:08:56;;;;;;;4.50;1.50;;;14.40;99.90;;;;;;4931716;29;20202;-77
2022/10/10 09:11:42;;;;;;;2.35;1.00;;;14.40;99.90;;;;;;4933938;29;20197;-77
2022/10/10 09:14:25;;;;;;;5.45;1.40;;;14.40;99.90;;;;;;4929076;29;20202;-78
2022/10/10 09:17:03;;;;;;;4.65;1.45;;;14.30;99.90;;;;;;4928367;29;20213;-78
2022/10/10 09:19:43;;;;;;;4.32;1.73;;;14.40;99.90;;;;;;4931958;29;20213;-77
2022/10/10 09:22:17;;;;;;;6.13;1.42;;;14.40;99.90;;;;;;4933059;29;20201;-77
2022/10/10 09:24:53;;;;;;;4.13;1.40;;;14.40;99.90;;;;;;4933568;29;20207;-76
2022/10/10 09:27:28;;;;;;;4.60;1.40;;;14.30;99.90;;;;;;4934200;29;20201;-76
2022/10/10 09:30:04;;;;;;;4.47;1.73;;;14.40;99.90;;;;;;4924004;29;20574;-78
2022/10/10 09:32:39;;;;;;;4.68;1.42;;;14.30;99.90;;;;;;4932040;29;20326;-77
2022/10/10 09:35:19;;;;;;;5.40;1.60;;;14.30;99.90;;;;;;4933050;29;20239;-76
2022/10/10 09:37:55;;;;;;;5.65;1.77;;;14.30;99.90;;;;;;4922208;29;20263;-78
2022/10/10 09:40:32;;;;;;;5.38;1.60;;;14.30;99.90;;;;;;4932050;29;20541;-78
2022/10/10 09:43:12;;;;;;;3.70;1.55;;;14.30;99.90;;;;;;4929562;29;20239;-76
2022/10/10 09:45:49;;;;;;;3.63;1.80;;;14.30;99.90;;;;;;4929691;29;20207;-78
2022/10/10 09:48:20;;;;;;;3.60;1.48;;;14.20;99.90;;;;;;4931171;29;20209;-74
2022/10/10 09:50:51;;;;;;;4.30;1.40;;;14.20;99.90;;;;;;4927973;29;20197;-71
2022/10/10 09:53:22;;;;;;;3.95;1.38;;;14.20;99.90;;;;;;4928512;29;20560;-73
2022/10/10 09:55:56;;;;;;;3.50;1.10;;;14.20;99.90;;;;;;4932207;29;20202;-70
2022/10/10 09:58:34;;;;;;;4.32;1.10;;;14.20;99.90;;;;;;4932962;29;20223;-71
2022/10/10 10:01:16;;;;;;;5.43;1.50;;;14.20;99.90;;;;;;4932057;29;20205;-70
2022/10/10 10:04:07;;;;;;;4.72;1.35;;;14.20;99.90;;;;;;4928158;29;20567;-71
2022/10/10 10:06:38;;;;;;;3.17;1.25;;;14.20;99.90;;;;;;4932367;29;20197;-78
2022/10/10 10:09:15;;;;;;;2.95;1.23;;;14.20;99.90;;;;;;4930485;29;20711;-74
2022/10/10 10:11:50;;;;;;;5.20;1.38;;;14.10;99.90;;;;;;4931377;29;20197;-72
2022/10/10 10:14:29;;;;;;;3.63;1.25;;;14.10;99.90;;;;;;4928828;29;20656;-71
2022/10/10 10:17:09;;;;;;;3.88;1.40;;;14.10;99.90;;;;;;4929279;29;20197;-70
2022/10/10 10:19:42;;;;;;;3.22;1.13;;;14.10;99.90;;;;;;4927748;29;20223;-70
2022/10/10 10:22:34;;;;;;;5.28;1.38;;;14.10;99.90;;;;;;4931787;29;20205;-71
2022/10/10 10:25:32;;;;;;;4.43;1.10;;;14.00;99.90;;;;;;4932334;29;20628;-72
2022/10/10 10:28:23;;;;;;;3.53;1.10;;;14.00;99.90;;;;;;4934505;29;20206;-75
2022/10/10 10:30:56;;;;;;;4.70;1.13;;;13.90;99.90;;;;;;4933490;29;20202;-70
2022/10/10 10:33:47;;;;;;;3.30;1.10;;;13.90;99.90;;;;;;4933552;29;20216;-71
2022/10/10 10:36:32;;;;;;;3.97;1.42;;;13.90;99.90;;;;;;4936201;29;20233;-77
2022/10/10 10:39:12;;;;;;;1.98;1.08;;;13.90;99.90;;;;;;4927052;29;20225;-78
2022/10/10 10:41:53;;;;;;;3.13;1.25;;;13.80;99.90;;;;;;4933874;29;20205;-78
2022/10/10 10:44:37;;;;;;;4.70;1.13;;;13.80;99.90;;;;;;4937270;29;20201;-77
2022/10/10 10:47:31;;;;;;;5.15;1.40;;;13.80;99.90;;;;;;4930092;29;20206;-78
2022/10/10 10:50:17;;;;;;;10.25;2.10;;;13.70;99.90;;;;;;4935620;29;20664;-77
2022/10/10 10:53:00;;;;;;;5.05;1.80;;;13.80;99.90;;;;;;4935501;29;20324;-74
2022/10/10 10:55:40;;;;;;;7.18;2.17;;;13.70;99.90;;;;;;4940324;29;20201;-77
2022/10/10 10:58:31;;;;;;;4.50;1.80;;;13.80;99.90;;;;;;4940046;29;20705;-75
2022/10/10 11:01:07;;;;;;;5.18;2.05;;;13.80;99.90;;;;;;4940301;29;20212;-74
2022/10/10 11:03:51;;;;;;;5.53;1.98;;;13.80;99.90;;;;;;4939490;29;21772;-76
2022/10/10 11:06:46;;;;;;;4.43;1.63;;;13.80;99.90;;;;;;4938931;29;20197;-72
2022/10/10 11:09:22;;;;;;;6.68;2.22;;;13.80;99.90;;;;;;4939583;29;20197;-72
2022/10/10 11:12:04;;;;;;;5.53;1.70;;;13.80;99.90;;;;;;4936469;29;20653;-74
2022/10/10 11:14:56;;;;;;;6.63;2.03;;;13.80;99.90;;;;;;4938889;29;20208;-73
2022/10/10 11:17:36;;;;;;;4.13;1.80;;;13.80;99.90;;;;;;4941983;29;20201;-74
2022/10/10 11:20:18;;;;;;;5.22;1.50;;;13.80;99.90;;;;;;4939876;29;20225;-76
2022/10/10 11:22:56;;;;;;;5.00;1.60;;;13.80;99.90;;;;;;4935457;29;20198;-78
2022/10/10 11:25:32;;;;;;;6.32;1.38;;;13.70;99.90;;;;;;4939989;29;20197;-77
2022/10/10 11:28:10;;;;;;;2.42;1.40;;;13.80;99.90;;;;;;4939490;29;20203;-74
2022/10/10 11:30:47;;;;;;;4.40;1.45;;;13.70;99.90;;;;;;4941993;29;20668;-77
2022/10/10 11:33:25;;;;;;;6.65;1.60;;;13.80;99.90;;;;;;4942629;29;20208;-75
2022/10/10 11:36:01;;;;;;;2.75;1.25;;;13.80;99.90;;;;;;4950325;28;20238;-75
2022/10/10 11:38:37;;;;;;;3.67;1.50;;;13.70;99.90;;;;;;4951345;29;20699;-78
2022/10/10 11:41:14;;;;;;;2.92;1.30;;;13.80;99.90;;;;;;4952764;29;20185;-74
2022/10/10 11:43:49;;;;;;;4.05;1.65;;;13.70;99.90;;;;;;4951200;28;20193;-72
2022/10/10 11:46:29;;;;;;;3.90;1.33;;;13.80;99.90;;;;;;4949794;29;20200;-76
2022/10/10 11:49:15;;;;;;;3.40;1.10;;;13.70;99.90;;;;;;4949132;29;20193;-72
2022/10/10 11:52:03;;;;;;;1.90;1.10;;;13.70;99.90;;;;;;4950293;29;20208;-73
2022/10/10 11:54:40;;;;;;;3.72;1.05;;;13.70;99.90;;;;;;4940057;28;20209;-76
2022/10/10 11:57:18;;;;;;;4.03;1.30;;;13.80;99.90;;;;;;4937125;29;20208;-76
2022/10/10 11:59:54;;;;;;;6.03;1.30;;;13.70;99.90;;;;;;4937203;29;20244;-76
2022/10/10 12:02:28;;;;;;;3.92;1.23;;;13.70;99.90;;;;;;4938222;29;20208;-76
2022/10/10 12:05:04;;;;;;;4.88;1.40;;;13.70;99.90;;;;;;4935912;29;20719;-72
2022/10/10 12:07:43;;;;;;;1.92;1.33;;;13.70;99.90;;;;;;4941708;29;20204;-76
2022/10/10 12:10:21;;;;;;;3.72;1.20;;;13.70;99.90;;;;;;4934403;29;20588;-76
2022/10/10 12:12:55;;;;;;;3.72;1.40;;;13.70;99.90;;;;;;4934341;29;20201;-76
2022/10/10 12:15:32;;;;;;;5.85;1.65;;;13.70;99.90;;;;;;4934536;29;20206;-74
2022/10/10 12:18:03;;;;;;;3.53;1.50;;;13.70;99.90;;;;;;4934110;29;20208;-76
2022/10/10 12:20:37;;;;;;;3.67;1.40;;;13.70;99.90;;;;;;4940599;29;20205;-74
2022/10/10 12:23:27;;;;;;;3.60;1.48;;;13.70;99.90;;;;;;4936864;29;20193;-75
2022/10/10 12:25:58;;;;;;;5.13;1.63;;;13.70;99.90;;;;;;4937494;29;20202;-76
2022/10/10 12:28:36;;;;;;;3.90;1.30;;;13.70;99.90;;;;;;4939540;29;20209;-73
2022/10/10 12:31:35;;;;;;;4.53;1.50;;;13.60;99.90;;;;;;4940082;29;20656;-75
2022/10/10 12:34:41;;;;;;;2.80;1.30;;;13.70;99.90;;;;;;4937703;29;20641;-73
2022/10/10 12:37:27;;;;;;;5.70;1.30;;;13.60;99.90;;;;;;4938954;28;20241;-73
2022/10/10 12:40:21;;;;;;;5.53;1.30;;;13.60;99.90;;;;;;4935788;29;20222;-72
2022/10/10 12:43:22;;;;;;;4.47;1.10;;;13.50;99.90;;;;;;4938377;29;20280;-75
2022/10/10 12:46:09;;;;;;;3.60;1.50;;;13.50;99.90;;;;;;4938989;29;20220;-76
2022/10/10 12:48:40;;;;;;;3.95;1.45;;;13.50;99.90;;;;;;4942957;29;20201;-75
2022/10/10 12:51:22;;;;;;;6.00;1.38;;;13.40;99.90;;;;;;4940197;29;20201;-75
2022/10/10 12:54:00;;;;;;;4.82;1.15;;;13.40;99.90;;;;;;4943946;29;20189;-75
2022/10/10 12:56:43;;;;;;;3.83;1.30;;;13.40;99.90;;;;;;4940388;29;20215;-73
2022/10/10 12:59:23;;;;;;;5.53;1.30;;;13.40;99.90;;;;;;4937508;29;20232;-74
2022/10/10 13:01:57;;;;;;;3.30;1.52;;;13.40;99.90;;;;;;4935920;29;20224;-72
2022/10/10 13:04:29;;;;;;;7.68;1.63;;;13.40;99.90;;;;;;4937644;28;20219;-74
2022/10/10 13:07:03;;;;;;;3.65;1.30;;;13.40;99.90;;;;;;4941292;29;20193;-73
2022/10/10 13:09:38;;;;;;;3.78;1.30;;;13.30;99.90;;;;;;4934880;29;20209;-76
2022/10/10 13:12:22;;;;;;;5.18;1.52;;;13.30;99.90;;;;;;4940700;29;20201;-74
2022/10/10 13:14:54;;;;;;;4.75;1.52;;;13.30;99.90;;;;;;4936463;29;20197;-73
2022/10/10 13:17:27;;;;;;;4.85;1.33;;;13.30;99.90;;;;;;4941291;29;20197;-75
2022/10/10 13:20:00;;;;;;;3.70;1.60;;;13.20;99.90;;;;;;4937645;29;20221;-73
2022/10/10 13:22:39;;;;;;;5.05;1.35;;;13.20;99.90;;;;;;4938225;29;20205;-74
2022/10/10 13:25:13;;;;;;;5.82;1.27;;;13.20;99.90;;;;;;4940139;29;20225;-71
2022/10/10 13:27:45;;;;;;;2.60;1.17;;;13.20;99.90;;;;;;4939075;29;20217;-75
2022/10/10 13:30:22;;;;;;;5.00;1.30;;;13.20;99.90;;;;;;4940115;29;20693;-73